sensor_id;sensor_type;location;lat;lon;timestamp;P1;durP1;ratioP1;P2;durP2;ratioP2
59338;SDS011;45117;50.960;5.500;2022-08-21T11:13:29;4.07;;;1.00;;
59338;SDS011;45117;50.960;5.500;2022-08-21T11:16:05;4.80;;;1.10;;
59338;SDS011;45117;50.960;5.500;2022-08-21T11:18:37;2.58;;;0.88;;
59338;SDS011;45117;50.960;5.500;2022-08-21T11:21:25;5.03;;;0.82;;
59338;SDS011;45117;50.960;5.500;2022-08-21T11:23:57;3.83;;;1.02;;
59338;SDS011;45117;50.960;5.500;2022-08-21T11:26:30;3.67;;;1.02;;
59338;SDS011;45117;50.960;5.500;2022-08-21T11:29:04;3.72;;;0.98;;
59338;SDS011;45117;50.960;5.500;2022-08-21T11:31:39;4.22;;;0.95;;
59338;SDS011;45117;50.960;5.500;2022-08-21T11:34:20;3.47;;;0.80;;
59338;SDS011;45117;50.960;5.500;2022-08-21T11:36:57;3.88;;;1.10;;
59338;SDS011;45117;50.960;5.500;2022-08-21T11:39:30;2.53;;;0.90;;
59338;SDS011;45117;50.960;5.500;2022-08-21T11:42:06;4.25;;;1.10;;
59338;SDS011;45117;50.960;5.500;2022-08-21T11:44:44;6.82;;;1.15;;
59338;SDS011;45117;50.960;5.500;2022-08-21T11:47:18;5.38;;;1.20;;
59338;SDS011;45117;50.960;5.500;2022-08-21T11:49:53;5.78;;;1.08;;
59338;SDS011;45117;50.960;5.500;2022-08-21T11:52:36;3.90;;;1.15;;
59338;SDS011;45117;50.960;5.500;2022-08-21T11:55:06;4.10;;;0.98;;
59338;SDS011;45117;50.960;5.500;2022-08-21T11:57:39;4.53;;;1.10;;
59338;SDS011;45117;50.960;5.500;2022-08-21T12:00:13;14.65;;;1.50;;
59338;SDS011;45117;50.960;5.500;2022-08-21T12:02:46;4.22;;;1.17;;
59338;SDS011;45117;50.960;5.500;2022-08-21T12:05:22;5.95;;;1.02;;
59338;SDS011;45117;50.960;5.500;2022-08-21T12:08:00;5.65;;;1.25;;
59338;SDS011;45117;50.960;5.500;2022-08-21T12:10:32;7.32;;;1.15;;
59338;SDS011;45117;50.960;5.500;2022-08-21T12:13:05;6.30;;;1.17;;
59338;SDS011;45117;50.960;5.500;2022-08-21T12:15:35;4.15;;;1.17;;
59338;SDS011;45117;50.960;5.500;2022-08-21T12:18:03;5.00;;;1.00;;
59338;SDS011;45117;50.960;5.500;2022-08-21T12:20:42;4.03;;;0.90;;
59338;SDS011;45117;50.960;5.500;2022-08-21T12:23:27;4.47;;;1.10;;
59338;SDS011;45117;50.960;5.500;2022-08-21T12:25:59;4.80;;;1.10;;
59338;SDS011;45117;50.960;5.500;2022-08-21T12:28:29;7.70;;;1.25;;
59338;SDS011;45117;50.960;5.500;2022-08-21T12:30:58;4.75;;;1.05;;
59338;SDS011;45117;50.960;5.500;2022-08-21T12:33:25;2.97;;;0.98;;
59338;SDS011;45117;50.960;5.500;2022-08-21T12:36:01;7.30;;;1.20;;
59338;SDS011;45117;50.960;5.500;2022-08-21T12:38:32;5.68;;;1.85;;
59338;SDS011;45117;50.960;5.500;2022-08-21T12:41:06;3.83;;;1.00;;
59338;SDS011;45117;50.960;5.500;2022-08-21T12:43:37;3.33;;;0.93;;
59338;SDS011;45117;50.960;5.500;2022-08-21T12:46:13;4.63;;;1.27;;
59338;SDS011;45117;50.960;5.500;2022-08-21T12:48:43;3.60;;;1.20;;
59338;SDS011;45117;50.960;5.500;2022-08-21T12:51:15;4.63;;;1.50;;
59338;SDS011;45117;50.960;5.500;2022-08-21T12:53:45;7.63;;;1.52;;
59338;SDS011;45117;50.960;5.500;2022-08-21T12:56:16;5.45;;;1.75;;
59338;SDS011;45117;50.960;5.500;2022-08-21T12:58:45;7.32;;;1.40;;
59338;SDS011;45117;50.960;5.500;2022-08-21T13:01:15;5.30;;;1.23;;
59338;SDS011;45117;50.960;5.500;2022-08-21T13:03:45;6.72;;;1.20;;
59338;SDS011;45117;50.960;5.500;2022-08-21T13:06:13;5.18;;;1.15;;
59338;SDS011;45117;50.960;5.500;2022-08-21T13:08:41;6.97;;;1.30;;
59338;SDS011;45117;50.960;5.500;2022-08-21T13:11:10;4.63;;;1.10;;
59338;SDS011;45117;50.960;5.500;2022-08-21T13:13:40;6.30;;;1.42;;
59338;SDS011;45117;50.960;5.500;2022-08-21T13:16:07;5.70;;;1.30;;
59338;SDS011;45117;50.960;5.500;2022-08-21T13:18:52;4.95;;;1.25;;
59338;SDS011;45117;50.960;5.500;2022-08-21T13:21:26;5.63;;;1.27;;
59338;SDS011;45117;50.960;5.500;2022-08-21T13:23:54;4.75;;;1.00;;
59338;SDS011;45117;50.960;5.500;2022-08-21T13:26:32;4.47;;;1.30;;
59338;SDS011;45117;50.960;5.500;2022-08-21T13:29:05;4.43;;;0.95;;
59338;SDS011;45117;50.960;5.500;2022-08-21T13:31:33;7.93;;;1.20;;
59338;SDS011;45117;50.960;5.500;2022-08-21T13:34:01;12.38;;;1.60;;
59338;SDS011;45117;50.960;5.500;2022-08-21T13:36:29;5.20;;;1.10;;
59338;SDS011;45117;50.960;5.500;2022-08-21T13:39:01;6.38;;;1.17;;
59338;SDS011;45117;50.960;5.500;2022-08-21T13:41:30;5.28;;;1.30;;
59338;SDS011;45117;50.960;5.500;2022-08-21T13:44:00;4.45;;;1.40;;
59338;SDS011;45117;50.960;5.500;2022-08-21T13:46:30;5.63;;;1.55;;
59338;SDS011;45117;50.960;5.500;2022-08-21T13:49:02;5.60;;;1.20;;
59338;SDS011;45117;50.960;5.500;2022-08-21T13:51:31;6.20;;;1.10;;
59338;SDS011;45117;50.960;5.500;2022-08-21T13:53:58;4.18;;;1.05;;
59338;SDS011;45117;50.960;5.500;2022-08-21T13:56:25;5.30;;;1.40;;
59338;SDS011;45117;50.960;5.500;2022-08-21T13:58:54;3.95;;;0.98;;
59338;SDS011;45117;50.960;5.500;2022-08-21T14:01:23;6.43;;;1.40;;
59338;SDS011;45117;50.960;5.500;2022-08-21T14:03:53;4.55;;;1.30;;
59338;SDS011;45117;50.960;5.500;2022-08-21T14:06:24;5.70;;;1.17;;
59338;SDS011;45117;50.960;5.500;2022-08-21T14:08:53;3.22;;;0.93;;
59338;SDS011;45117;50.960;5.500;2022-08-21T14:11:22;4.10;;;1.00;;
59338;SDS011;45117;50.960;5.500;2022-08-21T14:13:55;4.22;;;1.17;;
59338;SDS011;45117;50.960;5.500;2022-08-21T14:16:25;5.93;;;1.33;;
59338;SDS011;45117;50.960;5.500;2022-08-21T14:18:53;5.95;;;1.20;;
59338;SDS011;45117;50.960;5.500;2022-08-21T14:21:37;8.30;;;1.52;;
59338;SDS011;45117;50.960;5.500;2022-08-21T14:24:06;6.85;;;1.20;;
59338;SDS011;45117;50.960;5.500;2022-08-21T14:26:37;6.90;;;1.50;;
59338;SDS011;45117;50.960;5.500;2022-08-21T14:29:11;4.78;;;1.10;;
59338;SDS011;45117;50.960;5.500;2022-08-21T14:31:40;4.85;;;1.13;;
59338;SDS011;45117;50.960;5.500;2022-08-21T14:34:07;9.07;;;1.40;;
59338;SDS011;45117;50.960;5.500;2022-08-21T14:36:37;5.20;;;1.23;;
59338;SDS011;45117;50.960;5.500;2022-08-21T14:39:04;4.18;;;1.17;;
59338;SDS011;45117;50.960;5.500;2022-08-21T14:41:30;4.78;;;1.17;;
59338;SDS011;45117;50.960;5.500;2022-08-21T14:43:57;4.10;;;1.23;;
59338;SDS011;45117;50.960;5.500;2022-08-21T14:46:25;4.88;;;1.10;;
59338;SDS011;45117;50.960;5.500;2022-08-21T14:48:53;3.08;;;0.90;;
59338;SDS011;45117;50.960;5.500;2022-08-21T14:51:20;7.97;;;1.40;;
59338;SDS011;45117;50.960;5.500;2022-08-21T14:53:48;5.22;;;1.30;;
59338;SDS011;45117;50.960;5.500;2022-08-21T14:56:14;6.63;;;1.00;;
59338;SDS011;45117;50.960;5.500;2022-08-21T14:58:42;4.22;;;1.23;;
59338;SDS011;45117;50.960;5.500;2022-08-21T15:01:11;4.32;;;1.50;;
59338;SDS011;45117;50.960;5.500;2022-08-21T15:03:39;4.43;;;1.10;;
59338;SDS011;45117;50.960;5.500;2022-08-21T15:06:06;3.80;;;1.17;;
59338;SDS011;45117;50.960;5.500;2022-08-21T15:08:34;8.38;;;1.70;;
59338;SDS011;45117;50.960;5.500;2022-08-21T15:11:03;4.40;;;1.40;;
59338;SDS011;45117;50.960;5.500;2022-08-21T15:13:30;5.57;;;1.40;;
59338;SDS011;45117;50.960;5.500;2022-08-21T15:15:57;3.10;;;0.98;;
59338;SDS011;45117;50.960;5.500;2022-08-21T15:18:25;6.10;;;1.73;;
59338;SDS011;45117;50.960;5.500;2022-08-21T15:20:53;7.25;;;1.40;;
59338;SDS011;45117;50.960;5.500;2022-08-21T15:23:20;4.35;;;1.25;;
59338;SDS011;45117;50.960;5.500;2022-08-21T15:25:47;6.38;;;1.38;;
59338;SDS011;45117;50.960;5.500;2022-08-21T15:28:16;6.93;;;1.40;;
59338;SDS011;45117;50.960;5.500;2022-08-21T15:30:43;6.50;;;1.30;;
59338;SDS011;45117;50.960;5.500;2022-08-21T15:33:11;5.88;;;1.30;;
59338;SDS011;45117;50.960;5.500;2022-08-21T15:35:37;4.97;;;1.35;;
59338;SDS011;45117;50.960;5.500;2022-08-21T15:38:04;6.55;;;1.48;;
59338;SDS011;45117;50.960;5.500;2022-08-21T15:40:32;6.25;;;1.30;;
59338;SDS011;45117;50.960;5.500;2022-08-21T15:43:00;4.90;;;1.58;;
59338;SDS011;45117;50.960;5.500;2022-08-21T15:45:30;7.00;;;1.30;;
59338;SDS011;45117;50.960;5.500;2022-08-21T15:47:58;3.83;;;1.20;;
59338;SDS011;45117;50.960;5.500;2022-08-21T15:50:25;6.22;;;1.33;;
59338;SDS011;45117;50.960;5.500;2022-08-21T15:52:54;4.63;;;1.20;;
59338;SDS011;45117;50.960;5.500;2022-08-21T15:55:20;8.25;;;1.50;;
59338;SDS011;45117;50.960;5.500;2022-08-21T15:57:48;8.27;;;1.45;;
59338;SDS011;45117;50.960;5.500;2022-08-21T16:00:18;6.00;;;1.23;;
59338;SDS011;45117;50.960;5.500;2022-08-21T16:02:50;5.20;;;1.10;;
59338;SDS011;45117;50.960;5.500;2022-08-21T16:05:19;4.93;;;1.13;;
59338;SDS011;45117;50.960;5.500;2022-08-21T16:07:47;3.13;;;1.10;;
59338;SDS011;45117;50.960;5.500;2022-08-21T16:10:15;6.35;;;1.20;;
59338;SDS011;45117;50.960;5.500;2022-08-21T16:12:44;6.68;;;1.45;;
59338;SDS011;45117;50.960;5.500;2022-08-21T16:15:13;6.70;;;1.55;;
59338;SDS011;45117;50.960;5.500;2022-08-21T16:17:42;3.47;;;1.25;;
59338;SDS011;45117;50.960;5.500;2022-08-21T16:20:15;4.97;;;1.10;;
59338;SDS011;45117;50.960;5.500;2022-08-21T16:22:43;6.93;;;1.20;;
59338;SDS011;45117;50.960;5.500;2022-08-21T16:25:10;6.32;;;1.30;;
59338;SDS011;45117;50.960;5.500;2022-08-21T16:27:38;5.55;;;1.10;;
59338;SDS011;45117;50.960;5.500;2022-08-21T16:30:07;5.30;;;1.23;;
59338;SDS011;45117;50.960;5.500;2022-08-21T16:32:35;4.78;;;1.20;;
59338;SDS011;45117;50.960;5.500;2022-08-21T16:35:02;6.00;;;1.48;;
59338;SDS011;45117;50.960;5.500;2022-08-21T16:37:31;5.95;;;1.40;;
59338;SDS011;45117;50.960;5.500;2022-08-21T16:39:57;7.53;;;1.38;;
59338;SDS011;45117;50.960;5.500;2022-08-21T16:42:24;5.63;;;1.83;;
59338;SDS011;45117;50.960;5.500;2022-08-21T16:44:52;4.93;;;1.33;;
59338;SDS011;45117;50.960;5.500;2022-08-21T16:47:20;5.38;;;1.80;;
59338;SDS011;45117;50.960;5.500;2022-08-21T16:49:47;7.30;;;1.40;;
59338;SDS011;45117;50.960;5.500;2022-08-21T16:52:15;5.50;;;1.42;;
59338;SDS011;45117;50.960;5.500;2022-08-21T16:54:43;8.07;;;1.60;;
59338;SDS011;45117;50.960;5.500;2022-08-21T16:57:09;6.78;;;2.08;;
59338;SDS011;45117;50.960;5.500;2022-08-21T16:59:37;9.18;;;1.80;;
59338;SDS011;45117;50.960;5.500;2022-08-21T17:02:04;6.53;;;2.00;;
59338;SDS011;45117;50.960;5.500;2022-08-21T17:04:31;7.10;;;1.63;;
59338;SDS011;45117;50.960;5.500;2022-08-21T17:06:58;6.32;;;1.92;;
59338;SDS011;45117;50.960;5.500;2022-08-21T17:09:24;6.75;;;1.25;;
59338;SDS011;45117;50.960;5.500;2022-08-21T17:11:52;7.43;;;1.52;;
59338;SDS011;45117;50.960;5.500;2022-08-21T17:14:20;3.25;;;1.17;;
59338;SDS011;45117;50.960;5.500;2022-08-21T17:16:50;6.47;;;1.30;;
59338;SDS011;45117;50.960;5.500;2022-08-21T17:19:19;9.23;;;1.58;;
59338;SDS011;45117;50.960;5.500;2022-08-21T17:21:46;3.65;;;1.27;;
59338;SDS011;45117;50.960;5.500;2022-08-21T17:24:13;7.30;;;1.85;;
59338;SDS011;45117;50.960;5.500;2022-08-21T17:26:40;5.65;;;1.65;;
59338;SDS011;45117;50.960;5.500;2022-08-21T17:29:08;6.20;;;1.60;;
59338;SDS011;45117;50.960;5.500;2022-08-21T17:31:38;5.35;;;1.38;;
59338;SDS011;45117;50.960;5.500;2022-08-21T17:34:07;7.13;;;1.60;;
59338;SDS011;45117;50.960;5.500;2022-08-21T17:36:34;6.78;;;1.70;;
59338;SDS011;45117;50.960;5.500;2022-08-21T17:39:01;6.57;;;1.45;;
59338;SDS011;45117;50.960;5.500;2022-08-21T17:41:29;9.63;;;1.75;;
59338;SDS011;45117;50.960;5.500;2022-08-21T17:43:56;6.50;;;1.85;;
59338;SDS011;45117;50.960;5.500;2022-08-21T17:46:26;5.15;;;1.45;;
59338;SDS011;45117;50.960;5.500;2022-08-21T17:48:53;4.35;;;1.52;;
59338;SDS011;45117;50.960;5.500;2022-08-21T17:51:20;6.40;;;1.50;;
59338;SDS011;45117;50.960;5.500;2022-08-21T17:53:47;7.68;;;1.80;;
59338;SDS011;45117;50.960;5.500;2022-08-21T17:56:14;5.53;;;1.50;;
59338;SDS011;45117;50.960;5.500;2022-08-21T17:58:42;9.40;;;1.58;;
59338;SDS011;45117;50.960;5.500;2022-08-21T18:01:12;6.30;;;1.80;;
59338;SDS011;45117;50.960;5.500;2022-08-21T18:03:40;4.90;;;1.65;;
59338;SDS011;45117;50.960;5.500;2022-08-21T18:06:07;6.03;;;1.58;;
59338;SDS011;45117;50.960;5.500;2022-08-21T18:08:33;5.80;;;1.90;;
59338;SDS011;45117;50.960;5.500;2022-08-21T18:11:00;7.25;;;1.83;;
59338;SDS011;45117;50.960;5.500;2022-08-21T18:13:28;6.97;;;1.67;;
59338;SDS011;45117;50.960;5.500;2022-08-21T18:15:57;9.50;;;4.53;;
59338;SDS011;45117;50.960;5.500;2022-08-21T18:18:25;7.57;;;1.92;;
59338;SDS011;45117;50.960;5.500;2022-08-21T18:20:54;6.93;;;2.20;;
59338;SDS011;45117;50.960;5.500;2022-08-21T18:23:22;5.85;;;1.95;;
59338;SDS011;45117;50.960;5.500;2022-08-21T18:25:50;6.90;;;1.73;;
59338;SDS011;45117;50.960;5.500;2022-08-21T18:28:21;8.50;;;1.70;;
59338;SDS011;45117;50.960;5.500;2022-08-21T18:30:48;4.82;;;1.67;;
59338;SDS011;45117;50.960;5.500;2022-08-21T18:33:16;8.32;;;2.00;;
59338;SDS011;45117;50.960;5.500;2022-08-21T18:35:43;12.05;;;2.30;;
59338;SDS011;45117;50.960;5.500;2022-08-21T18:38:11;5.15;;;1.50;;
59338;SDS011;45117;50.960;5.500;2022-08-21T18:40:39;8.05;;;2.72;;
59338;SDS011;45117;50.960;5.500;2022-08-21T18:43:10;7.28;;;1.67;;
59338;SDS011;45117;50.960;5.500;2022-08-21T18:45:38;5.75;;;1.60;;
59338;SDS011;45117;50.960;5.500;2022-08-21T18:48:06;9.70;;;1.70;;
59338;SDS011;45117;50.960;5.500;2022-08-21T18:50:35;7.18;;;1.85;;
59338;SDS011;45117;50.960;5.500;2022-08-21T18:53:04;9.25;;;2.60;;
59338;SDS011;45117;50.960;5.500;2022-08-21T18:55:32;9.73;;;2.30;;
59338;SDS011;45117;50.960;5.500;2022-08-21T18:58:00;4.95;;;2.22;;
59338;SDS011;45117;50.960;5.500;2022-08-21T19:00:27;6.22;;;2.22;;
59338;SDS011;45117;50.960;5.500;2022-08-21T19:02:56;20.48;;;6.15;;
59338;SDS011;45117;50.960;5.500;2022-08-21T19:05:25;11.88;;;3.17;;
59338;SDS011;45117;50.960;5.500;2022-08-21T19:07:52;10.00;;;3.38;;
59338;SDS011;45117;50.960;5.500;2022-08-21T19:10:20;15.90;;;4.20;;
59338;SDS011;45117;50.960;5.500;2022-08-21T19:12:49;7.40;;;2.63;;
59338;SDS011;45117;50.960;5.500;2022-08-21T20:17:56;7.95;;;3.40;;
59338;SDS011;45117;50.960;5.500;2022-08-21T20:20:23;9.05;;;3.35;;
59338;SDS011;45117;50.960;5.500;2022-08-21T20:22:50;10.35;;;3.38;;
59338;SDS011;45117;50.960;5.500;2022-08-21T20:25:16;8.15;;;3.35;;
59338;SDS011;45117;50.960;5.500;2022-08-21T20:27:43;8.60;;;3.42;;
59338;SDS011;45117;50.960;5.500;2022-08-21T20:30:11;9.07;;;3.60;;
59338;SDS011;45117;50.960;5.500;2022-08-21T20:32:38;8.40;;;3.25;;
59338;SDS011;45117;50.960;5.500;2022-08-21T20:35:06;9.82;;;3.50;;
59338;SDS011;45117;50.960;5.500;2022-08-21T20:37:34;12.27;;;3.35;;
59338;SDS011;45117;50.960;5.500;2022-08-21T20:40:00;10.45;;;3.40;;
59338;SDS011;45117;50.960;5.500;2022-08-21T20:42:28;8.90;;;3.40;;
59338;SDS011;45117;50.960;5.500;2022-08-21T20:44:54;8.07;;;3.25;;
59338;SDS011;45117;50.960;5.500;2022-08-21T20:47:21;9.25;;;3.40;;
59338;SDS011;45117;50.960;5.500;2022-08-21T20:49:49;8.52;;;3.10;;
59338;SDS011;45117;50.960;5.500;2022-08-21T20:52:22;8.35;;;3.20;;
59338;SDS011;45117;50.960;5.500;2022-08-21T20:54:51;9.10;;;3.20;;
59338;SDS011;45117;50.960;5.500;2022-08-21T20:57:24;7.28;;;3.53;;
59338;SDS011;45117;50.960;5.500;2022-08-21T20:59:57;7.97;;;3.63;;
59338;SDS011;45117;50.960;5.500;2022-08-21T21:02:35;7.95;;;3.28;;
59338;SDS011;45117;50.960;5.500;2022-08-21T21:05:09;8.80;;;3.28;;
59338;SDS011;45117;50.960;5.500;2022-08-21T21:07:46;10.13;;;3.40;;
59338;SDS011;45117;50.960;5.500;2022-08-21T21:10:20;7.93;;;3.30;;
59338;SDS011;45117;50.960;5.500;2022-08-21T21:12:52;7.43;;;2.63;;
59338;SDS011;45117;50.960;5.500;2022-08-21T21:15:25;10.32;;;3.17;;
59338;SDS011;45117;50.960;5.500;2022-08-21T21:17:57;7.90;;;3.10;;
59338;SDS011;45117;50.960;5.500;2022-08-21T21:20:29;8.38;;;3.00;;
59338;SDS011;45117;50.960;5.500;2022-08-21T21:23:02;6.93;;;2.72;;
59338;SDS011;45117;50.960;5.500;2022-08-21T21:25:38;6.07;;;2.70;;
59338;SDS011;45117;50.960;5.500;2022-08-21T21:28:11;9.10;;;3.42;;
59338;SDS011;45117;50.960;5.500;2022-08-21T21:30:43;9.93;;;3.45;;
59338;SDS011;45117;50.960;5.500;2022-08-21T21:33:11;10.02;;;3.22;;
59338;SDS011;45117;50.960;5.500;2022-08-21T21:35:40;6.97;;;2.67;;
59338;SDS011;45117;50.960;5.500;2022-08-21T21:38:13;8.70;;;3.10;;
59338;SDS011;45117;50.960;5.500;2022-08-21T21:40:46;9.73;;;3.08;;
59338;SDS011;45117;50.960;5.500;2022-08-21T21:43:21;7.13;;;2.83;;
59338;SDS011;45117;50.960;5.500;2022-08-21T21:46:00;10.10;;;2.85;;
59338;SDS011;45117;50.960;5.500;2022-08-21T21:48:42;7.93;;;2.70;;
59338;SDS011;45117;50.960;5.500;2022-08-21T21:51:17;6.97;;;2.80;;
59338;SDS011;45117;50.960;5.500;2022-08-21T21:53:53;7.80;;;2.50;;
59338;SDS011;45117;50.960;5.500;2022-08-21T21:56:30;10.85;;;3.03;;
59338;SDS011;45117;50.960;5.500;2022-08-21T22:01:55;8.18;;;2.60;;
59338;SDS011;45117;50.960;5.500;2022-08-21T22:04:27;8.52;;;2.92;;
59338;SDS011;45117;50.960;5.500;2022-08-21T22:07:00;8.48;;;3.10;;
59338;SDS011;45117;50.960;5.500;2022-08-21T22:09:39;5.63;;;2.70;;
59338;SDS011;45117;50.960;5.500;2022-08-21T22:12:13;7.97;;;2.83;;
59338;SDS011;45117;50.960;5.500;2022-08-21T22:14:52;8.15;;;3.40;;
59338;SDS011;45117;50.960;5.500;2022-08-21T22:17:26;8.38;;;2.65;;
59338;SDS011;45117;50.960;5.500;2022-08-21T22:19:58;11.93;;;3.38;;
59338;SDS011;45117;50.960;5.500;2022-08-21T22:22:28;9.68;;;3.65;;
59338;SDS011;45117;50.960;5.500;2022-08-21T22:24:59;9.30;;;3.33;;
59338;SDS011;45117;50.960;5.500;2022-08-21T22:27:30;8.18;;;2.88;;
59338;SDS011;45117;50.960;5.500;2022-08-21T22:30:00;8.30;;;3.30;;
59338;SDS011;45117;50.960;5.500;2022-08-21T22:32:34;7.47;;;3.30;;
59338;SDS011;45117;50.960;5.500;2022-08-21T22:35:04;8.23;;;3.08;;
59338;SDS011;45117;50.960;5.500;2022-08-21T22:37:37;7.53;;;3.58;;
59338;SDS011;45117;50.960;5.500;2022-08-21T22:40:07;11.20;;;3.38;;
59338;SDS011;45117;50.960;5.500;2022-08-21T22:42:35;10.00;;;3.20;;
59338;SDS011;45117;50.960;5.500;2022-08-21T22:45:03;7.03;;;2.70;;
59338;SDS011;45117;50.960;5.500;2022-08-21T22:47:34;8.13;;;3.25;;
59338;SDS011;45117;50.960;5.500;2022-08-21T22:50:06;8.95;;;3.08;;
59338;SDS011;45117;50.960;5.500;2022-08-21T22:52:43;9.23;;;3.10;;
59338;SDS011;45117;50.960;5.500;2022-08-21T22:55:19;7.97;;;2.92;;
59338;SDS011;45117;50.960;5.500;2022-08-21T22:57:58;6.75;;;2.88;;
59338;SDS011;45117;50.960;5.500;2022-08-21T23:00:45;9.00;;;3.10;;
59338;SDS011;45117;50.960;5.500;2022-08-21T23:03:16;8.57;;;3.40;;
59338;SDS011;45117;50.960;5.500;2022-08-21T23:05:47;11.02;;;3.40;;
59338;SDS011;45117;50.960;5.500;2022-08-21T23:08:17;6.80;;;3.25;;
59338;SDS011;45117;50.960;5.500;2022-08-21T23:10:50;7.40;;;3.42;;
59338;SDS011;45117;50.960;5.500;2022-08-21T23:13:23;10.35;;;3.50;;
59338;SDS011;45117;50.960;5.500;2022-08-21T23:15:57;9.60;;;3.50;;
59338;SDS011;45117;50.960;5.500;2022-08-21T23:18:29;6.65;;;3.00;;
59338;SDS011;45117;50.960;5.500;2022-08-21T23:21:09;7.88;;;3.70;;
59338;SDS011;45117;50.960;5.500;2022-08-21T23:23:42;7.05;;;2.80;;
59338;SDS011;45117;50.960;5.500;2022-08-21T23:26:34;7.45;;;3.30;;
59338;SDS011;45117;50.960;5.500;2022-08-21T23:29:11;7.25;;;3.50;;
59338;SDS011;45117;50.960;5.500;2022-08-21T23:31:45;8.50;;;2.90;;
59338;SDS011;45117;50.960;5.500;2022-08-21T23:34:19;6.65;;;3.22;;
59338;SDS011;45117;50.960;5.500;2022-08-21T23:37:07;9.75;;;3.17;;
59338;SDS011;45117;50.960;5.500;2022-08-21T23:40:04;8.68;;;2.85;;
59338;SDS011;45117;50.960;5.500;2022-08-21T23:42:46;5.22;;;2.75;;
59338;SDS011;45117;50.960;5.500;2022-08-21T23:45:21;6.70;;;3.00;;
59338;SDS011;45117;50.960;5.500;2022-08-21T23:47:56;7.03;;;3.05;;
59338;SDS011;45117;50.960;5.500;2022-08-21T23:50:33;9.82;;;3.25;;
59338;SDS011;45117;50.960;5.500;2022-08-21T23:53:07;8.32;;;3.08;;
59338;SDS011;45117;50.960;5.500;2022-08-21T23:55:43;8.35;;;3.30;;
59338;SDS011;45117;50.960;5.500;2022-08-21T23:58:21;6.05;;;2.47;;
